createdAt,value
2023-06-07T00:02:05.913Z,5.80
2023-06-07T00:04:32.939Z,6.55
2023-06-07T00:07:02.449Z,6.43
2023-06-07T00:09:31.434Z,6.43
2023-06-07T00:11:58.910Z,6.60
2023-06-07T00:14:26.124Z,6.25
2023-06-07T00:16:54.658Z,6.45
2023-06-07T00:19:26.460Z,6.32
2023-06-07T00:21:53.480Z,5.70
2023-06-07T00:24:21.235Z,5.95
2023-06-07T00:26:48.542Z,6.10
2023-06-07T00:29:16.245Z,5.57
2023-06-07T00:31:43.260Z,6.55
2023-06-07T00:34:10.051Z,6.35
2023-06-07T00:36:36.941Z,6.28
2023-06-07T00:39:03.982Z,6.45
2023-06-07T00:41:30.868Z,6.18
2023-06-07T00:43:57.784Z,6.47
2023-06-07T00:46:29.465Z,6.25
2023-06-07T00:48:58.173Z,6.18
2023-06-07T00:51:29.109Z,6.60
2023-06-07T00:53:59.497Z,6.68
2023-06-07T00:56:27.605Z,6.72
2023-06-07T00:58:54.733Z,6.82
2023-06-07T01:01:21.683Z,6.18
2023-06-07T01:03:48.871Z,6.18
2023-06-07T01:06:15.837Z,6.45
2023-06-07T01:08:43.367Z,6.40
2023-06-07T01:11:12.061Z,4.97
2023-06-07T01:13:40.422Z,6.35
2023-06-07T01:16:09.475Z,5.65
2023-06-07T01:18:37.270Z,6.43
2023-06-07T01:21:05.756Z,6.03
2023-06-07T01:23:34.029Z,6.90
2023-06-07T01:26:02.261Z,6.07
2023-06-07T01:28:32.535Z,5.68
2023-06-07T01:33:30.282Z,6.22
2023-06-07T01:35:58.995Z,6.53
2023-06-07T01:38:27.875Z,6.38
2023-06-07T01:40:56.547Z,6.13
2023-06-07T01:43:24.636Z,6.72
2023-06-07T01:45:53.825Z,6.55
2023-06-07T01:48:20.976Z,5.50
2023-06-07T01:50:47.891Z,6.72
2023-06-07T01:53:14.751Z,5.88
2023-06-07T01:55:41.926Z,6.30
2023-06-07T01:58:19.231Z,5.55
2023-06-07T02:01:14.630Z,6.38
2023-06-07T02:03:54.908Z,6.80
2023-06-07T02:06:29.353Z,6.13
2023-06-07T02:09:01.123Z,7.57
2023-06-07T02:11:29.600Z,6.18
2023-06-07T02:13:57.264Z,6.60
2023-06-07T02:16:37.833Z,6.05
2023-06-07T02:19:08.698Z,6.72
2023-06-07T02:21:36.584Z,6.78
2023-06-07T02:24:04.457Z,6.07
2023-06-07T02:26:31.518Z,5.43
2023-06-07T02:28:58.312Z,6.97
2023-06-07T02:31:25.783Z,6.13
2023-06-07T02:33:53.084Z,7.38
2023-06-07T02:36:23.483Z,6.57
2023-06-07T02:38:50.316Z,8.13
2023-06-07T02:41:17.259Z,5.82
2023-06-07T02:43:45.141Z,7.63
2023-06-07T02:46:14.650Z,7.15
2023-06-07T02:48:41.442Z,7.95
2023-06-07T02:51:08.535Z,7.03
2023-06-07T02:53:35.724Z,7.50
2023-06-07T02:56:02.591Z,7.07
2023-06-07T02:58:30.090Z,6.88
2023-06-07T03:00:57.322Z,7.70
2023-06-07T03:03:25.073Z,8.27
2023-06-07T03:05:53.418Z,7.75
2023-06-07T03:08:20.396Z,7.32
2023-06-07T03:10:47.233Z,7.05
2023-06-07T03:13:14.029Z,8.20
2023-06-07T03:15:40.806Z,8.60
2023-06-07T03:18:08.370Z,7.60
2023-06-07T03:20:35.873Z,7.88
2023-06-07T03:23:04.020Z,6.88
2023-06-07T03:25:31.486Z,7.82
2023-06-07T03:27:58.390Z,7.75
2023-06-07T03:30:25.309Z,7.45
2023-06-07T03:32:52.362Z,8.07
2023-06-07T03:35:19.934Z,8.25
2023-06-07T03:37:47.244Z,8.63
2023-06-07T03:40:14.244Z,9.13
2023-06-07T03:42:41.060Z,8.02
2023-06-07T03:45:08.333Z,9.43
2023-06-07T03:47:35.217Z,9.80
2023-06-07T03:50:02.486Z,8.50
2023-06-07T03:52:29.591Z,8.77
2023-06-07T03:54:56.360Z,9.05
2023-06-07T03:57:23.268Z,9.10
2023-06-07T03:59:50.035Z,9.43
2023-06-07T04:02:16.913Z,8.65
2023-06-07T04:04:43.747Z,9.35
2023-06-07T04:07:10.554Z,9.20
2023-06-07T04:09:37.366Z,8.98
2023-06-07T04:12:05.066Z,9.95
2023-06-07T04:14:31.807Z,10.20
2023-06-07T04:16:58.643Z,10.52
2023-06-07T04:19:25.521Z,9.43
2023-06-07T04:21:52.324Z,10.88
2023-06-07T04:24:20.428Z,10.98
2023-06-07T04:26:48.640Z,10.07
2023-06-07T04:29:16.141Z,10.18
2023-06-07T04:31:43.855Z,10.30
2023-06-07T04:34:11.140Z,12.88
2023-06-07T04:36:40.213Z,9.93
2023-06-07T04:39:10.359Z,10.07
2023-06-07T04:41:37.764Z,10.35
2023-06-07T04:44:04.752Z,11.25
2023-06-07T04:46:34.798Z,11.48
2023-06-07T04:49:01.743Z,11.50
2023-06-07T04:51:30.955Z,11.65
2023-06-07T04:54:02.875Z,12.00
2023-06-07T04:56:29.934Z,11.50
2023-06-07T04:58:57.626Z,11.43
2023-06-07T05:01:25.720Z,10.30
2023-06-07T05:04:01.411Z,10.63
2023-06-07T05:06:29.823Z,10.02
2023-06-07T05:08:57.080Z,9.80
2023-06-07T05:11:24.183Z,11.85
2023-06-07T05:13:51.048Z,11.40
2023-06-07T05:16:18.235Z,10.93
2023-06-07T05:18:47.698Z,10.18
2023-06-07T05:21:15.217Z,10.63
2023-06-07T05:23:42.612Z,12.88
2023-06-07T05:26:09.660Z,12.43
2023-06-07T05:28:36.800Z,12.43
2023-06-07T05:31:03.976Z,11.70
2023-06-07T05:33:32.177Z,11.80
2023-06-07T05:35:59.466Z,12.27
2023-06-07T05:38:26.400Z,11.10
2023-06-07T05:40:56.735Z,12.27
2023-06-07T05:45:50.588Z,11.25
2023-06-07T05:48:17.515Z,12.32
2023-06-07T05:50:44.368Z,12.82
2023-06-07T05:53:11.663Z,12.20
2023-06-07T05:55:38.578Z,12.77
2023-06-07T05:58:05.464Z,11.23
2023-06-07T06:00:33.069Z,13.00
2023-06-07T06:03:02.889Z,13.95
2023-06-07T06:05:30.279Z,12.55
2023-06-07T06:07:58.471Z,12.77
2023-06-07T06:10:26.484Z,12.75
2023-06-07T06:12:53.705Z,14.77
2023-06-07T06:15:20.660Z,13.02
2023-06-07T06:17:50.363Z,12.32
2023-06-07T06:20:18.058Z,11.05
2023-06-07T06:22:46.878Z,12.32
2023-06-07T06:25:15.177Z,14.07
2023-06-07T06:27:42.506Z,12.77
2023-06-07T06:30:09.768Z,13.38
2023-06-07T06:32:36.982Z,12.57
2023-06-07T06:35:04.692Z,11.65
2023-06-07T06:37:31.675Z,12.90
2023-06-07T06:39:58.662Z,14.07
2023-06-07T06:42:26.005Z,13.10
2023-06-07T06:44:52.907Z,14.15
2023-06-07T06:47:19.767Z,13.10
2023-06-07T06:49:46.901Z,12.65
2023-06-07T06:52:13.767Z,13.32
2023-06-07T06:54:40.750Z,13.23
2023-06-07T06:57:09.363Z,11.63
2023-06-07T06:59:37.066Z,11.60
2023-06-07T07:02:04.525Z,12.68
2023-06-07T07:04:33.050Z,11.88
2023-06-07T07:07:00.083Z,11.85
2023-06-07T07:09:26.987Z,12.82
2023-06-07T07:11:53.994Z,13.30
2023-06-07T07:14:20.824Z,12.43
2023-06-07T07:16:47.923Z,12.85
2023-06-07T07:19:14.857Z,12.75
2023-06-07T07:21:44.441Z,12.80
2023-06-07T07:24:11.568Z,12.77
2023-06-07T07:26:40.475Z,11.30
2023-06-07T07:29:07.534Z,12.70
2023-06-07T07:31:35.028Z,12.23
2023-06-07T07:34:04.917Z,13.48
2023-06-07T07:36:35.398Z,12.02
2023-06-07T07:39:08.913Z,11.13
2023-06-07T07:41:35.884Z,11.23
2023-06-07T07:44:02.770Z,12.38
2023-06-07T07:46:29.787Z,12.88
2023-06-07T07:48:57.075Z,11.48
2023-06-07T07:51:24.136Z,10.38
2023-06-07T07:53:53.617Z,10.65
2023-06-07T07:56:22.620Z,11.32
2023-06-07T07:58:52.102Z,10.43
2023-06-07T08:01:23.666Z,11.90
2023-06-07T08:03:50.987Z,10.98
2023-06-07T08:06:18.491Z,11.30
2023-06-07T08:08:48.540Z,11.82
2023-06-07T08:11:15.557Z,9.85
2023-06-07T08:13:42.482Z,10.60
2023-06-07T08:16:09.516Z,11.50
2023-06-07T08:18:36.510Z,9.65
2023-06-07T08:21:05.106Z,9.95
2023-06-07T08:23:32.171Z,10.23
2023-06-07T08:25:59.720Z,9.65
2023-06-07T08:28:26.986Z,9.65
2023-06-07T08:30:53.842Z,8.48
2023-06-07T08:33:20.679Z,9.70
2023-06-07T08:35:47.505Z,10.02
2023-06-07T08:38:14.564Z,8.55
2023-06-07T08:40:41.598Z,10.10
2023-06-07T08:43:09.196Z,10.45
2023-06-07T08:45:38.325Z,9.85
2023-06-07T08:48:07.785Z,8.85
2023-06-07T08:50:35.446Z,7.95
2023-06-07T08:53:09.820Z,11.25
2023-06-07T08:55:38.220Z,8.75
2023-06-07T08:58:07.715Z,9.55
2023-06-07T09:00:34.958Z,8.40
2023-06-07T09:03:02.193Z,9.13
2023-06-07T09:05:29.991Z,8.63
2023-06-07T09:07:57.497Z,8.98
2023-06-07T09:10:24.353Z,8.52
2023-06-07T09:12:51.291Z,8.38
2023-06-07T09:15:22.666Z,8.68
2023-06-07T09:18:01.603Z,8.30
2023-06-07T09:20:30.359Z,8.10
2023-06-07T09:23:00.937Z,7.50
2023-06-07T09:25:29.271Z,8.55
2023-06-07T09:27:56.882Z,8.30
2023-06-07T09:30:24.651Z,7.93
2023-06-07T09:32:51.836Z,8.20
2023-06-07T09:35:22.300Z,7.07
2023-06-07T09:37:56.054Z,6.88
2023-06-07T09:40:26.306Z,7.22
2023-06-07T09:43:00.743Z,7.50
2023-06-07T09:45:28.551Z,6.85
2023-06-07T09:48:07.610Z,6.97
2023-06-07T09:50:34.841Z,7.65
2023-06-07T09:53:02.958Z,7.45
2023-06-07T09:55:31.400Z,7.78
2023-06-07T09:57:58.728Z,6.82
2023-06-07T10:00:27.226Z,6.57
2023-06-07T10:03:06.773Z,7.15
2023-06-07T10:05:34.345Z,7.55
2023-06-07T10:08:01.322Z,7.50
2023-06-07T10:10:29.408Z,6.30
2023-06-07T10:12:59.707Z,5.93
2023-06-07T10:15:26.973Z,6.93
2023-06-07T10:18:06.510Z,6.70
2023-06-07T10:20:42.172Z,6.70
2023-06-07T10:23:15.253Z,6.28
2023-06-07T10:25:59.357Z,6.38
2023-06-07T10:28:31.347Z,5.82
2023-06-07T10:31:06.645Z,6.85
2023-06-07T10:33:36.936Z,6.18
2023-06-07T10:36:04.912Z,5.35
2023-06-07T10:38:33.554Z,6.07
2023-06-07T10:41:05.685Z,6.57
2023-06-07T10:43:34.354Z,6.10
2023-06-07T10:46:25.391Z,6.55
2023-06-07T10:48:54.219Z,5.90
2023-06-07T10:52:05.959Z,6.00
2023-06-07T10:54:34.695Z,5.75
2023-06-07T10:57:04.198Z,5.38
2023-06-07T10:59:31.316Z,5.43
2023-06-07T11:02:20.199Z,5.18
2023-06-07T11:05:01.377Z,5.47
2023-06-07T11:07:32.381Z,5.65
2023-06-07T11:10:06.361Z,6.00
2023-06-07T11:12:37.484Z,4.88
2023-06-07T11:15:21.661Z,5.05
2023-06-07T11:17:52.689Z,4.95
2023-06-07T11:20:41.623Z,4.88
2023-06-07T11:23:28.638Z,4.78
2023-06-07T11:25:57.482Z,5.00
2023-06-07T11:28:34.683Z,5.22
2023-06-07T11:31:02.829Z,4.40
2023-06-07T11:33:30.434Z,4.22
2023-06-07T11:35:57.915Z,4.85
2023-06-07T11:38:27.380Z,4.65
2023-06-07T11:40:54.894Z,5.15
2023-06-07T11:43:24.919Z,4.57
2023-06-07T11:45:55.691Z,4.95
2023-06-07T11:48:26.355Z,4.63
2023-06-07T11:50:53.403Z,4.15
2023-06-07T11:53:21.575Z,4.75
2023-06-07T11:55:48.850Z,4.82
2023-06-07T11:58:16.040Z,4.60
2023-06-07T12:00:45.267Z,4.63
2023-06-07T12:03:14.288Z,4.47
2023-06-07T12:05:41.539Z,4.68
2023-06-07T12:08:14.198Z,4.68
2023-06-07T12:10:41.084Z,4.15
2023-06-07T12:13:17.608Z,4.25
2023-06-07T12:15:46.889Z,4.07
2023-06-07T12:18:20.069Z,4.80
2023-06-07T12:20:48.873Z,4.57
2023-06-07T12:23:21.488Z,5.15
2023-06-07T12:25:49.209Z,5.53
2023-06-07T12:28:16.725Z,4.43
2023-06-07T12:30:49.310Z,4.30
2023-06-07T12:33:16.682Z,4.72
2023-06-07T12:35:48.966Z,4.25
2023-06-07T12:38:16.501Z,4.00
2023-06-07T12:40:43.402Z,4.28
2023-06-07T12:43:10.403Z,4.13
2023-06-07T12:45:37.714Z,3.95
2023-06-07T12:48:05.167Z,4.38
2023-06-07T12:50:32.224Z,4.03
2023-06-07T12:52:59.609Z,4.22
2023-06-07T12:55:27.314Z,4.50
2023-06-07T12:57:54.578Z,4.40
2023-06-07T13:00:21.732Z,3.88
2023-06-07T13:02:49.380Z,4.35
2023-06-07T13:05:16.450Z,4.05
2023-06-07T13:07:43.458Z,3.55
2023-06-07T13:10:11.966Z,4.22
2023-06-07T13:12:40.133Z,4.25
2023-06-07T13:15:07.770Z,4.05
2023-06-07T13:17:35.440Z,4.65
2023-06-07T13:20:03.149Z,4.05
2023-06-07T13:22:32.581Z,4.63
2023-06-07T13:24:59.821Z,4.13
2023-06-07T13:27:28.564Z,5.38
2023-06-07T13:29:56.575Z,4.35
2023-06-07T13:32:24.143Z,4.25
2023-06-07T13:34:51.207Z,3.80
2023-06-07T13:37:18.199Z,4.13
2023-06-07T13:39:45.117Z,4.28
2023-06-07T13:42:12.852Z,3.90
2023-06-07T13:44:40.818Z,4.00
2023-06-07T13:47:09.047Z,4.28
2023-06-07T13:49:36.917Z,4.03
2023-06-07T13:52:04.419Z,4.07
2023-06-07T13:54:33.133Z,4.13
2023-06-07T13:57:00.956Z,4.30
2023-06-07T13:59:29.728Z,3.85
2023-06-07T14:02:00.481Z,3.88
2023-06-07T14:04:28.504Z,4.05
2023-06-07T14:06:55.763Z,4.00
2023-06-07T14:09:22.725Z,3.53
2023-06-07T14:11:49.898Z,3.78
2023-06-07T14:14:16.995Z,3.75
2023-06-07T14:16:43.880Z,3.97
2023-06-07T14:19:10.999Z,4.10
2023-06-07T14:21:39.158Z,4.45
2023-06-07T14:24:06.496Z,3.80
2023-06-07T14:26:33.596Z,3.92
2023-06-07T14:29:00.647Z,4.38
2023-06-07T14:31:27.961Z,3.85
2023-06-07T14:33:55.000Z,4.60
2023-06-07T14:36:21.955Z,3.88
2023-06-07T14:38:48.788Z,3.92
2023-06-07T14:41:16.132Z,3.95
2023-06-07T14:43:43.058Z,3.25
2023-06-07T14:46:09.964Z,3.90
2023-06-07T14:48:36.884Z,3.80
2023-06-07T14:51:03.835Z,3.45
2023-06-07T14:53:30.665Z,3.55
2023-06-07T14:55:57.499Z,3.83
2023-06-07T14:58:24.438Z,4.15
2023-06-07T15:00:51.787Z,3.83
2023-06-07T15:03:18.772Z,3.58
2023-06-07T15:05:45.896Z,4.28
2023-06-07T15:08:12.797Z,3.78
2023-06-07T15:10:39.639Z,4.10
2023-06-07T15:13:06.495Z,4.18
2023-06-07T15:15:33.564Z,3.42
2023-06-07T15:18:00.430Z,3.53
2023-06-07T15:20:27.907Z,3.63
2023-06-07T15:22:54.774Z,4.28
2023-06-07T15:25:21.764Z,3.00
2023-06-07T15:27:48.652Z,3.33
2023-06-07T15:30:15.595Z,3.83
2023-06-07T15:32:42.472Z,3.97
2023-06-07T15:35:12.701Z,3.65
2023-06-07T15:37:40.328Z,3.78
2023-06-07T15:40:08.215Z,4.55
2023-06-07T15:42:35.705Z,3.53
2023-06-07T15:45:02.667Z,3.45
2023-06-07T15:47:29.517Z,3.67
2023-06-07T15:49:56.482Z,3.58
2023-06-07T15:52:23.308Z,3.67
2023-06-07T15:54:50.235Z,4.03
2023-06-07T15:57:17.313Z,3.97
2023-06-07T15:59:44.206Z,3.55
2023-06-07T16:02:11.089Z,3.78
2023-06-07T16:04:39.716Z,4.07
2023-06-07T16:07:06.654Z,3.67
2023-06-07T16:09:33.632Z,3.70
2023-06-07T16:12:00.535Z,4.20
2023-06-07T16:14:27.432Z,3.42
2023-06-07T16:16:54.423Z,3.55
2023-06-07T16:19:21.871Z,4.15
2023-06-07T16:21:48.764Z,3.78
2023-06-07T16:24:15.749Z,4.07
2023-06-07T16:26:42.712Z,3.53
2023-06-07T16:29:09.564Z,3.80
2023-06-07T16:31:36.451Z,3.97
2023-06-07T16:34:03.580Z,3.63
2023-06-07T16:36:30.898Z,4.07
2023-06-07T16:38:57.794Z,3.72
2023-06-07T16:41:26.684Z,3.42
2023-06-07T16:43:53.691Z,4.15
2023-06-07T16:46:21.115Z,4.05
2023-06-07T16:48:48.092Z,3.90
2023-06-07T16:51:15.362Z,4.15
2023-06-07T16:53:42.357Z,4.05
2023-06-07T16:56:09.260Z,4.00
2023-06-07T16:58:36.249Z,4.07
2023-06-07T17:01:04.596Z,3.60
2023-06-07T17:03:31.745Z,3.47
2023-06-07T17:05:58.665Z,4.07
2023-06-07T17:08:25.614Z,4.10
2023-06-07T17:10:52.568Z,3.70
2023-06-07T17:13:19.486Z,3.95
2023-06-07T17:15:46.562Z,3.63
2023-06-07T17:18:16.105Z,4.35
2023-06-07T17:20:44.481Z,4.07
2023-06-07T17:23:13.046Z,4.05
2023-06-07T17:25:39.900Z,3.53
2023-06-07T17:28:06.789Z,3.75
2023-06-07T17:30:38.940Z,4.25
2023-06-07T17:33:06.998Z,4.28
2023-06-07T17:35:34.015Z,4.10
2023-06-07T17:38:00.854Z,4.22
2023-06-07T17:40:27.748Z,4.00
2023-06-07T17:42:58.278Z,4.60
2023-06-07T17:45:26.997Z,4.15
2023-06-07T17:47:55.578Z,4.30
2023-06-07T17:50:37.166Z,3.90
2023-06-07T17:53:13.368Z,4.60
2023-06-07T17:55:41.233Z,4.10
2023-06-07T17:58:08.105Z,4.32
2023-06-07T18:00:35.134Z,4.82
2023-06-07T18:03:03.699Z,4.25
2023-06-07T18:05:30.801Z,4.43
2023-06-07T18:07:57.676Z,4.72
2023-06-07T18:10:24.585Z,5.07
2023-06-07T18:12:51.443Z,4.63
2023-06-07T18:15:18.318Z,4.22
2023-06-07T18:17:45.391Z,4.25
2023-06-07T18:20:12.733Z,4.50
2023-06-07T18:22:39.614Z,4.90
2023-06-07T18:25:06.870Z,4.75
2023-06-07T18:27:33.744Z,4.45
2023-06-07T18:30:00.613Z,4.55
2023-06-07T18:32:27.552Z,5.22
2023-06-07T18:34:54.431Z,4.75
2023-06-07T18:37:21.335Z,5.10
2023-06-07T18:39:48.195Z,4.70
2023-06-07T18:42:16.706Z,4.65
2023-06-07T18:44:43.838Z,4.22
2023-06-07T18:47:10.876Z,4.50
2023-06-07T18:49:37.882Z,5.20
2023-06-07T18:52:11.010Z,4.57
2023-06-07T18:54:38.500Z,4.53
2023-06-07T18:57:05.893Z,4.00
2023-06-07T18:59:33.607Z,4.05
2023-06-07T19:02:00.927Z,4.13
2023-06-07T19:04:29.405Z,4.05
2023-06-07T19:06:56.785Z,4.38
2023-06-07T19:09:23.852Z,4.25
2023-06-07T19:11:50.778Z,4.40
2023-06-07T19:14:19.650Z,3.90
2023-06-07T19:16:47.178Z,4.38
2023-06-07T19:19:14.570Z,4.45
2023-06-07T19:21:41.503Z,4.65
2023-06-07T19:24:08.926Z,4.65
2023-06-07T19:26:36.011Z,4.32
2023-06-07T19:29:04.115Z,4.13
2023-06-07T19:31:31.302Z,4.43
2023-06-07T19:33:58.304Z,4.20
2023-06-07T19:36:25.176Z,4.57
2023-06-07T19:38:54.011Z,4.70
2023-06-07T19:41:22.002Z,4.30
2023-06-07T19:43:48.753Z,3.95
2023-06-07T19:46:16.012Z,4.15
2023-06-07T19:48:43.044Z,4.57
2023-06-07T19:51:10.146Z,4.40
2023-06-07T19:53:37.184Z,4.65
2023-06-07T19:56:04.679Z,4.13
2023-06-07T19:58:31.960Z,5.38
2023-06-07T20:00:58.828Z,4.97
2023-06-07T20:03:25.787Z,5.00
2023-06-07T20:05:52.671Z,5.20
2023-06-07T20:08:19.599Z,5.50
2023-06-07T20:10:46.475Z,4.65
2023-06-07T20:13:17.883Z,4.82
2023-06-07T20:15:45.568Z,5.45
2023-06-07T20:18:12.421Z,4.65
2023-06-07T20:20:39.205Z,4.93
2023-06-07T20:23:06.786Z,4.72
2023-06-07T20:25:33.731Z,5.43
2023-06-07T20:28:00.645Z,4.65
2023-06-07T20:30:27.582Z,4.55
2023-06-07T20:32:54.604Z,5.10
2023-06-07T20:35:21.561Z,4.65
2023-06-07T20:37:49.032Z,4.93
2023-06-07T20:40:16.267Z,4.72
2023-06-07T20:42:43.081Z,4.97
2023-06-07T20:45:10.390Z,3.97
2023-06-07T20:47:37.153Z,4.95
2023-06-07T20:50:04.489Z,4.45
2023-06-07T20:52:33.236Z,4.95
2023-06-07T20:57:30.385Z,4.57
2023-06-07T20:59:57.328Z,5.07
2023-06-07T21:02:24.297Z,4.10
2023-06-07T21:04:54.157Z,4.47
2023-06-07T21:07:21.549Z,5.40
2023-06-07T21:09:48.628Z,5.38
2023-06-07T21:12:15.824Z,5.22
2023-06-07T21:14:42.805Z,4.22
2023-06-07T21:17:09.829Z,4.93
2023-06-07T21:19:37.073Z,5.10
2023-06-07T21:22:05.072Z,5.72
2023-06-07T21:24:32.188Z,5.90
2023-06-07T21:26:59.145Z,4.85
2023-06-07T21:29:25.977Z,5.25
2023-06-07T21:31:52.887Z,4.43
2023-06-07T21:34:19.766Z,6.07
2023-06-07T21:36:46.563Z,5.22
2023-06-07T21:39:13.338Z,5.20
2023-06-07T21:41:41.577Z,5.22
2023-06-07T21:44:08.733Z,5.15
2023-06-07T21:46:35.657Z,5.28
2023-06-07T21:49:02.574Z,4.32
2023-06-07T21:51:29.475Z,5.82
2023-06-07T21:53:56.273Z,5.13
2023-06-07T21:56:23.107Z,5.18
2023-06-07T21:58:50.042Z,5.07
2023-06-07T22:01:16.884Z,5.35
2023-06-07T22:03:43.745Z,5.20
2023-06-07T22:06:10.568Z,5.80
2023-06-07T22:08:37.394Z,5.20
2023-06-07T22:11:04.223Z,5.30
2023-06-07T22:13:31.100Z,5.15
2023-06-07T22:16:02.069Z,6.05
2023-06-07T22:18:32.579Z,5.40
2023-06-07T22:21:01.712Z,5.07
2023-06-07T22:23:28.722Z,5.18
2023-06-07T22:25:56.329Z,5.47
2023-06-07T22:28:24.087Z,5.22
2023-06-07T22:30:51.133Z,5.50
2023-06-07T22:33:18.857Z,5.88
2023-06-07T22:35:48.011Z,5.40
2023-06-07T22:38:14.971Z,5.30
2023-06-07T22:40:43.136Z,5.95
2023-06-07T22:43:09.977Z,6.05
2023-06-07T22:45:36.909Z,6.25
2023-06-07T22:48:06.170Z,5.90
2023-06-07T22:50:37.892Z,5.78
2023-06-07T22:53:06.077Z,5.50
2023-06-07T22:55:33.923Z,5.70
2023-06-07T22:58:01.936Z,5.30
2023-06-07T23:00:29.388Z,5.45
2023-06-07T23:02:58.577Z,5.22
2023-06-07T23:05:28.309Z,5.32
2023-06-07T23:07:56.795Z,5.38
2023-06-07T23:10:35.733Z,5.53
2023-06-07T23:13:10.510Z,5.20
2023-06-07T23:15:42.465Z,5.43
2023-06-07T23:18:11.702Z,4.95
2023-06-07T23:20:42.050Z,5.55
2023-06-07T23:23:11.260Z,5.25
2023-06-07T23:25:38.629Z,5.55
2023-06-07T23:28:06.696Z,5.68
2023-06-07T23:30:34.097Z,6.07
2023-06-07T23:33:01.197Z,4.97
2023-06-07T23:35:28.759Z,5.63
2023-06-07T23:37:55.810Z,6.40
2023-06-07T23:40:22.734Z,5.55
2023-06-07T23:42:53.381Z,5.95
2023-06-07T23:45:22.227Z,5.32
2023-06-07T23:47:49.517Z,5.10
2023-06-07T23:50:16.491Z,5.95
2023-06-07T23:52:43.334Z,5.63
2023-06-07T23:55:10.583Z,5.60
2023-06-07T23:57:37.519Z,5.40
